Time;durP1;ratioP1;P1;durP2;ratioP2;P2;SDS_P1;SDS_P2;PMS_P1;PMS_P2;Temp;Humidity;BMP_temperature;BMP_pressure;BME280_temperature;BME280_humidity;BME280_pressure;Samples;Min_cycle;Max_cycle;Signal;HPM_P1;HPM_P2
2023/07/25 00:01:03;;;;;;;2.85;1.58;;;;;;;;;;5935623;28;20131;-74
2023/07/25 00:03:54;;;;;;;1.40;1.08;;;;;;;;;;5929688;28;20067;-75
2023/07/25 00:06:45;;;;;;;0.52;0.52;;;;;;;;;;5937232;28;20475;-75
2023/07/25 00:09:35;;;;;;;0.75;0.75;;;;;;;;;;5936947;28;20054;-75
2023/07/25 00:12:26;;;;;;;2.10;1.02;;;;;;;;;;5928212;28;20044;-75
2023/07/25 00:15:17;;;;;;;1.42;1.05;;;;;;;;;;5936868;28;20046;-74
2023/07/25 00:18:08;;;;;;;1.00;0.90;;;;;;;;;;5936665;28;20055;-75
2023/07/25 00:20:58;;;;;;;1.63;1.05;;;;;;;;;;5937368;28;20067;-74
2023/07/25 00:23:49;;;;;;;1.77;1.40;;;;;;;;;;5936538;28;20479;-75
2023/07/25 00:26:40;;;;;;;2.63;0.88;;;;;;;;;;5918411;28;20123;-75
2023/07/25 00:29:31;;;;;;;1.05;0.88;;;;;;;;;;5918552;28;20043;-74
2023/07/25 00:32:21;;;;;;;1.10;0.75;;;;;;;;;;5936486;28;20521;-74
2023/07/25 00:35:12;;;;;;;1.25;1.15;;;;;;;;;;5936462;28;20447;-74
2023/07/25 00:38:04;;;;;;;0.70;0.70;;;;;;;;;;5927493;28;20360;-75
2023/07/25 00:40:55;;;;;;;1.40;1.30;;;;;;;;;;5903043;28;20040;-74
2023/07/25 00:43:46;;;;;;;1.88;1.33;;;;;;;;;;5912248;28;20071;-74
2023/07/25 00:46:37;;;;;;;1.05;0.75;;;;;;;;;;5912329;28;20050;-74
2023/07/25 00:49:28;;;;;;;0.93;0.70;;;;;;;;;;5912422;28;20036;-74
2023/07/25 00:52:19;;;;;;;0.50;0.50;;;;;;;;;;5912536;28;20613;-75
2023/07/25 00:55:11;;;;;;;1.52;1.23;;;;;;;;;;5912336;28;20052;-75
2023/07/25 00:58:01;;;;;;;3.13;0.98;;;;;;;;;;5894030;28;20462;-75
2023/07/25 01:00:52;;;;;;;1.10;1.05;;;;;;;;;;5912788;28;20388;-74
2023/07/25 01:03:43;;;;;;;2.28;1.85;;;;;;;;;;5894197;28;20052;-74
2023/07/25 01:06:35;;;;;;;1.00;0.70;;;;;;;;;;5911782;28;20049;-74
2023/07/25 01:09:45;;;;;;;1.60;0.77;;;;;;;;;;5911794;28;20352;-74
2023/07/25 01:12:36;;;;;;;1.42;1.13;;;;;;;;;;5911674;28;20040;-74
2023/07/25 01:15:28;;;;;;;1.95;0.90;;;;;;;;;;5911906;28;20041;-74
2023/07/25 01:18:19;;;;;;;3.22;1.65;;;;;;;;;;5927163;28;20055;-74
2023/07/25 01:21:12;;;;;;;1.33;0.98;;;;;;;;;;5894231;28;20505;-74
2023/07/25 01:24:03;;;;;;;1.85;0.95;;;;;;;;;;5927188;28;20055;-75
2023/07/25 01:26:55;;;;;;;1.90;1.10;;;;;;;;;;5894447;28;20046;-74
2023/07/25 01:29:46;;;;;;;0.60;0.55;;;;;;;;;;5911679;28;20048;-74
2023/07/25 01:32:37;;;;;;;1.65;1.20;;;;;;;;;;5909945;28;20111;-74
2023/07/25 01:35:28;;;;;;;0.93;0.68;;;;;;;;;;5931682;28;20040;-74
2023/07/25 01:38:18;;;;;;;7.18;1.25;;;;;;;;;;5934671;28;20044;-74
2023/07/25 01:41:09;;;;;;;2.33;0.98;;;;;;;;;;5934849;28;20048;-74
2023/07/25 01:44:00;;;;;;;0.82;0.60;;;;;;;;;;5934880;28;20506;-75
2023/07/25 01:46:51;;;;;;;1.48;1.10;;;;;;;;;;5935163;28;20052;-74
2023/07/25 01:49:41;;;;;;;3.13;1.35;;;;;;;;;;5934729;28;20390;-74
2023/07/25 01:52:32;;;;;;;1.55;1.05;;;;;;;;;;5929555;28;20048;-73
2023/07/25 01:55:23;;;;;;;0.45;0.45;;;;;;;;;;5922592;28;20106;-74
2023/07/25 01:58:14;;;;;;;0.47;0.40;;;;;;;;;;5925674;28;20048;-74
2023/07/25 02:01:05;;;;;;;0.68;0.68;;;;;;;;;;5934516;28;20044;-74
2023/07/25 02:03:56;;;;;;;4.32;1.25;;;;;;;;;;5934732;28;20086;-75
2023/07/25 02:06:47;;;;;;;0.95;0.75;;;;;;;;;;5934441;28;20151;-74
2023/07/25 02:09:37;;;;;;;0.68;0.68;;;;;;;;;;5934243;28;20040;-74
2023/07/25 02:12:30;;;;;;;3.05;0.85;;;;;;;;;;5933802;28;20119;-75
2023/07/25 02:15:21;;;;;;;0.85;0.55;;;;;;;;;;5933205;28;20052;-74
2023/07/25 02:18:11;;;;;;;1.35;0.90;;;;;;;;;;5925405;28;20127;-74
2023/07/25 02:21:02;;;;;;;1.02;0.95;;;;;;;;;;5925571;28;20048;-74
2023/07/25 02:23:54;;;;;;;0.90;0.90;;;;;;;;;;5934357;28;20075;-73
2023/07/25 02:26:45;;;;;;;1.40;0.98;;;;;;;;;;5933923;28;20048;-73
2023/07/25 02:29:36;;;;;;;1.35;1.08;;;;;;;;;;5933919;28;20068;-74
2023/07/25 02:32:26;;;;;;;2.47;1.95;;;;;;;;;;5932972;28;20666;-74
2023/07/25 02:35:17;;;;;;;1.17;1.13;;;;;;;;;;5934015;28;20129;-74
2023/07/25 02:38:08;;;;;;;2.33;1.10;;;;;;;;;;5925435;28;20040;-74
2023/07/25 02:40:59;;;;;;;2.05;1.45;;;;;;;;;;5934456;28;20483;-74
2023/07/25 02:43:50;;;;;;;2.53;1.50;;;;;;;;;;5933362;28;20130;-74
2023/07/25 02:46:41;;;;;;;1.50;1.40;;;;;;;;;;5933665;28;20427;-74
2023/07/25 02:49:31;;;;;;;17.92;1.15;;;;;;;;;;5926221;28;20063;-74
2023/07/25 02:52:22;;;;;;;1.55;1.38;;;;;;;;;;5921155;28;21157;-74
2023/07/25 02:55:13;;;;;;;1.88;1.42;;;;;;;;;;5911395;28;20055;-73
2023/07/25 02:58:04;;;;;;;2.42;1.20;;;;;;;;;;5913504;28;20131;-72
2023/07/25 03:00:54;;;;;;;1.23;1.15;;;;;;;;;;5948560;28;20043;-74
2023/07/25 03:03:45;;;;;;;1.65;1.55;;;;;;;;;;5948011;28;20048;-73
2023/07/25 03:06:36;;;;;;;1.98;1.77;;;;;;;;;;5937770;28;20036;-74
2023/07/25 03:09:27;;;;;;;3.45;1.55;;;;;;;;;;5936752;28;20077;-74
2023/07/25 03:12:18;;;;;;;1.70;1.60;;;;;;;;;;5920058;28;20044;-74
2023/07/25 03:15:09;;;;;;;6.00;2.65;;;;;;;;;;5937833;28;20133;-73
2023/07/25 03:18:00;;;;;;;2.53;2.22;;;;;;;;;;5938397;28;20044;-74
2023/07/25 03:20:51;;;;;;;3.60;1.70;;;;;;;;;;5947145;28;20068;-74
2023/07/25 03:23:42;;;;;;;1.88;1.52;;;;;;;;;;5914825;28;20052;-74
2023/07/25 03:26:33;;;;;;;1.70;1.60;;;;;;;;;;5934572;28;20343;-74
2023/07/25 03:29:23;;;;;;;4.13;2.50;;;;;;;;;;5936869;28;20070;-76
2023/07/25 03:32:14;;;;;;;3.00;2.25;;;;;;;;;;5961045;28;20047;-74
2023/07/25 03:35:06;;;;;;;1.65;1.27;;;;;;;;;;5939786;28;20048;-74
2023/07/25 03:37:57;;;;;;;2.45;1.17;;;;;;;;;;5937474;28;20051;-75
2023/07/25 03:40:47;;;;;;;2.08;1.20;;;;;;;;;;5918508;28;20040;-74
2023/07/25 03:43:38;;;;;;;1.80;1.65;;;;;;;;;;5936231;28;20391;-74
2023/07/25 03:46:29;;;;;;;6.22;1.42;;;;;;;;;;5937040;28;20042;-74
2023/07/25 03:49:20;;;;;;;1.95;1.73;;;;;;;;;;5937194;28;20467;-74
2023/07/25 03:52:11;;;;;;;1.92;1.52;;;;;;;;;;5937114;28;20048;-74
2023/07/25 03:55:02;;;;;;;3.58;1.63;;;;;;;;;;5919097;28;20036;-74
2023/07/25 03:57:52;;;;;;;3.30;1.83;;;;;;;;;;5937891;28;20054;-74
2023/07/25 04:00:43;;;;;;;1.48;1.02;;;;;;;;;;5937015;28;20075;-74
2023/07/25 04:03:34;;;;;;;1.92;1.52;;;;;;;;;;5936719;28;20048;-74
2023/07/25 04:06:25;;;;;;;1.85;1.50;;;;;;;;;;5936539;28;20487;-74
2023/07/25 04:09:16;;;;;;;1.45;1.35;;;;;;;;;;5936066;28;20081;-74
2023/07/25 04:12:07;;;;;;;1.95;1.60;;;;;;;;;;5936840;28;20047;-74
2023/07/25 04:14:58;;;;;;;1.20;1.08;;;;;;;;;;5936962;28;20625;-74
2023/07/25 04:17:49;;;;;;;2.80;1.77;;;;;;;;;;5936426;28;20047;-74
2023/07/25 04:20:40;;;;;;;1.60;1.25;;;;;;;;;;5936397;28;20102;-74
2023/07/25 04:23:30;;;;;;;1.33;1.23;;;;;;;;;;5936472;28;20496;-74
2023/07/25 04:26:21;;;;;;;9.95;1.95;;;;;;;;;;5936453;28;20044;-74
2023/07/25 04:29:12;;;;;;;3.67;1.77;;;;;;;;;;5936210;28;20055;-74
2023/07/25 04:32:03;;;;;;;2.75;1.98;;;;;;;;;;5936382;28;20050;-74
2023/07/25 04:34:54;;;;;;;3.28;2.65;;;;;;;;;;5936601;28;20131;-74
2023/07/25 04:37:49;;;;;;;5.75;2.55;;;;;;;;;;5936140;28;20048;-74
2023/07/25 04:40:39;;;;;;;2.75;1.45;;;;;;;;;;5936104;28;20399;-74
2023/07/25 04:43:30;;;;;;;2.45;1.35;;;;;;;;;;5935809;28;20070;-74
2023/07/25 04:46:21;;;;;;;1.80;1.70;;;;;;;;;;5935665;28;20053;-74
2023/07/25 04:49:12;;;;;;;3.15;2.05;;;;;;;;;;5936114;28;20044;-74
2023/07/25 04:52:03;;;;;;;3.13;2.10;;;;;;;;;;5935895;28;20040;-74
2023/07/25 04:54:58;;;;;;;6.95;1.13;;;;;;;;;;5936685;28;20041;-74
2023/07/25 04:57:50;;;;;;;3.83;2.33;;;;;;;;;;5935795;28;20356;-74
2023/07/25 05:00:41;;;;;;;2.95;1.85;;;;;;;;;;5935942;28;20133;-74
2023/07/25 05:03:32;;;;;;;4.05;2.00;;;;;;;;;;5936062;28;20067;-75
2023/07/25 05:06:23;;;;;;;1.80;1.48;;;;;;;;;;5935573;28;20530;-74
2023/07/25 05:09:15;;;;;;;3.38;2.10;;;;;;;;;;5935516;28;20407;-74
2023/07/25 05:12:11;;;;;;;2.15;1.77;;;;;;;;;;5935489;28;20048;-75
2023/07/25 05:15:02;;;;;;;2.55;1.75;;;;;;;;;;5918681;28;20518;-74
2023/07/25 05:17:53;;;;;;;5.00;3.10;;;;;;;;;;5935730;28;20042;-75
2023/07/25 05:20:44;;;;;;;2.90;2.67;;;;;;;;;;5935604;28;20273;-74
2023/07/25 05:23:35;;;;;;;4.15;2.75;;;;;;;;;;5933991;28;20388;-74
2023/07/25 05:26:26;;;;;;;4.82;2.47;;;;;;;;;;5934378;28;20050;-75
2023/07/25 05:29:17;;;;;;;2.88;2.55;;;;;;;;;;5935203;28;20071;-75
2023/07/25 05:32:08;;;;;;;4.15;2.10;;;;;;;;;;5935081;28;20040;-75
2023/07/25 05:34:58;;;;;;;6.22;2.42;;;;;;;;;;5935659;28;20466;-75
2023/07/25 05:37:49;;;;;;;4.82;2.00;;;;;;;;;;5934985;28;20139;-75
2023/07/25 05:40:40;;;;;;;3.38;2.38;;;;;;;;;;5935046;28;20047;-75
2023/07/25 05:43:31;;;;;;;6.05;1.55;;;;;;;;;;5934897;28;20044;-75
2023/07/25 05:46:22;;;;;;;9.18;3.35;;;;;;;;;;5934827;28;20146;-75
2023/07/25 05:49:12;;;;;;;4.88;1.75;;;;;;;;;;5935048;28;20071;-74
2023/07/25 05:52:04;;;;;;;3.05;1.40;;;;;;;;;;5934787;28;20055;-75
2023/07/25 05:54:54;;;;;;;5.30;1.77;;;;;;;;;;5935512;28;20052;-75
2023/07/25 05:57:45;;;;;;;2.10;1.35;;;;;;;;;;5934599;28;20047;-74
2023/07/25 06:00:38;;;;;;;5.00;2.03;;;;;;;;;;5934764;28;20399;-75
2023/07/25 06:03:31;;;;;;;8.25;1.90;;;;;;;;;;5934608;28;20051;-74
2023/07/25 06:06:22;;;;;;;2.85;1.55;;;;;;;;;;5934536;28;20036;-74
2023/07/25 06:09:13;;;;;;;2.53;1.35;;;;;;;;;;5934715;28;20462;-74
2023/07/25 06:12:04;;;;;;;2.45;1.40;;;;;;;;;;5934560;28;20066;-74
2023/07/25 06:14:55;;;;;;;2.95;1.45;;;;;;;;;;5917476;28;20042;-73
2023/07/25 06:17:45;;;;;;;2.05;1.75;;;;;;;;;;5934242;28;20048;-74
2023/07/25 06:20:36;;;;;;;1.58;1.13;;;;;;;;;;5916548;28;20059;-74
2023/07/25 06:23:27;;;;;;;5.43;1.60;;;;;;;;;;5934438;28;20050;-73
2023/07/25 06:26:18;;;;;;;3.75;1.50;;;;;;;;;;5934114;28;20047;-73
2023/07/25 06:29:09;;;;;;;1.92;1.15;;;;;;;;;;5934207;28;20391;-72
2023/07/25 06:32:00;;;;;;;2.05;1.45;;;;;;;;;;5934770;28;20131;-71
2023/07/25 06:34:51;;;;;;;3.38;1.40;;;;;;;;;;5934682;28;20048;-72
2023/07/25 06:37:41;;;;;;;3.08;1.55;;;;;;;;;;5934039;28;20501;-70
2023/07/25 06:40:32;;;;;;;3.88;1.27;;;;;;;;;;5934241;28;20047;-72
2023/07/25 06:43:23;;;;;;;2.83;1.27;;;;;;;;;;5933830;28;20040;-72
2023/07/25 06:46:14;;;;;;;3.33;1.25;;;;;;;;;;5933790;28;20048;-72
2023/07/25 06:49:05;;;;;;;4.03;1.02;;;;;;;;;;5934069;28;20058;-71
2023/07/25 06:51:56;;;;;;;1.23;1.08;;;;;;;;;;5934468;28;20044;-71
2023/07/25 06:54:47;;;;;;;4.18;1.15;;;;;;;;;;5916355;28;20063;-71
2023/07/25 06:57:37;;;;;;;2.05;1.08;;;;;;;;;;5934020;28;20067;-70
2023/07/25 07:00:28;;;;;;;2.75;1.50;;;;;;;;;;5916269;28;20040;-72
2023/07/25 07:03:19;;;;;;;3.33;0.98;;;;;;;;;;5933840;28;20391;-71
2023/07/25 07:06:10;;;;;;;6.10;1.83;;;;;;;;;;5933688;28;20048;-70
2023/07/25 07:09:01;;;;;;;1.85;1.13;;;;;;;;;;5934061;28;20060;-72
2023/07/25 07:11:51;;;;;;;2.80;1.35;;;;;;;;;;5934137;28;20044;-71
2023/07/25 07:14:42;;;;;;;2.97;1.10;;;;;;;;;;5932659;28;20051;-71
2023/07/25 07:17:33;;;;;;;2.30;0.90;;;;;;;;;;5933477;28;20040;-71
2023/07/25 07:20:24;;;;;;;1.48;1.00;;;;;;;;;;5933576;28;20093;-72
2023/07/25 07:23:16;;;;;;;2.65;1.30;;;;;;;;;;5933387;28;20548;-72
2023/07/25 07:26:07;;;;;;;2.30;1.13;;;;;;;;;;5916062;28;20173;-70
2023/07/25 07:28:57;;;;;;;2.13;1.55;;;;;;;;;;5934267;28;20549;-72
2023/07/25 07:31:48;;;;;;;2.60;0.88;;;;;;;;;;5933662;28;20079;-71
2023/07/25 07:34:39;;;;;;;1.50;1.00;;;;;;;;;;5933414;28;20044;-71
2023/07/25 07:37:30;;;;;;;1.42;0.93;;;;;;;;;;5933344;28;20040;-71
2023/07/25 07:40:23;;;;;;;5.50;1.60;;;;;;;;;;5933571;28;20048;-71
2023/07/25 07:43:15;;;;;;;1.65;1.05;;;;;;;;;;5933203;28;20086;-71
2023/07/25 07:46:06;;;;;;;1.30;1.17;;;;;;;;;;5933226;28;20075;-71
2023/07/25 07:48:58;;;;;;;5.03;1.88;;;;;;;;;;5934179;28;20066;-71
2023/07/25 07:51:51;;;;;;;1.70;1.25;;;;;;;;;;5914581;28;20044;-70
2023/07/25 07:55:02;;;;;;;1.88;1.00;;;;;;;;;;5914673;28;20170;-71
2023/07/25 07:57:53;;;;;;;4.10;1.67;;;;;;;;;;5937929;28;20040;-71
2023/07/25 08:00:44;;;;;;;1.60;0.82;;;;;;;;;;5937598;28;20051;-70
2023/07/25 08:03:35;;;;;;;4.53;1.58;;;;;;;;;;5937373;28;20048;-71
2023/07/25 08:06:25;;;;;;;6.05;1.10;;;;;;;;;;5935286;28;20655;-71
2023/07/25 08:09:16;;;;;;;3.45;1.75;;;;;;;;;;5931468;28;20048;-71
2023/07/25 08:12:08;;;;;;;3.00;1.08;;;;;;;;;;5929434;28;20495;-71
2023/07/25 08:14:58;;;;;;;3.45;1.27;;;;;;;;;;5937744;28;20052;-70
2023/07/25 08:17:49;;;;;;;3.55;1.77;;;;;;;;;;5919122;28;20048;-70
2023/07/25 08:20:40;;;;;;;4.25;1.35;;;;;;;;;;5937231;28;20044;-71
2023/07/25 08:23:31;;;;;;;2.35;1.23;;;;;;;;;;5937150;28;20079;-70
2023/07/25 08:26:22;;;;;;;1.73;1.13;;;;;;;;;;5919053;28;20512;-70
2023/07/25 08:29:13;;;;;;;3.13;1.60;;;;;;;;;;5936926;28;20048;-70
2023/07/25 08:32:04;;;;;;;4.65;1.55;;;;;;;;;;5929670;28;20045;-70
2023/07/25 08:34:55;;;;;;;3.72;1.45;;;;;;;;;;5936721;28;20047;-70
2023/07/25 08:37:46;;;;;;;5.72;1.83;;;;;;;;;;5928405;28;20048;-71
2023/07/25 08:40:37;;;;;;;2.83;1.65;;;;;;;;;;5936714;28;20165;-71
2023/07/25 08:43:30;;;;;;;2.42;1.38;;;;;;;;;;5918572;28;20044;-71
2023/07/25 08:46:21;;;;;;;6.43;1.80;;;;;;;;;;5935081;28;20048;-71
2023/07/25 08:49:16;;;;;;;2.28;1.40;;;;;;;;;;5911983;28;20055;-71
2023/07/25 08:52:08;;;;;;;2.35;1.02;;;;;;;;;;5936257;28;20051;-70
2023/07/25 08:54:59;;;;;;;3.38;1.83;;;;;;;;;;5919199;28;20048;-71
2023/07/25 08:57:51;;;;;;;5.22;2.00;;;;;;;;;;5936316;28;20066;-71
2023/07/25 09:00:43;;;;;;;3.67;1.80;;;;;;;;;;5935058;28;20174;-71
2023/07/25 09:03:34;;;;;;;1.73;1.27;;;;;;;;;;5934761;28;20122;-71
2023/07/25 09:06:25;;;;;;;1.92;0.95;;;;;;;;;;5932650;28;20422;-71
2023/07/25 09:09:17;;;;;;;2.88;1.45;;;;;;;;;;5905891;28;20044;-71
2023/07/25 09:12:09;;;;;;;2.80;1.27;;;;;;;;;;5935968;28;20044;-71
2023/07/25 09:15:00;;;;;;;3.80;1.42;;;;;;;;;;5936540;28;20048;-70
2023/07/25 09:17:53;;;;;;;2.92;1.75;;;;;;;;;;5936226;28;20050;-70
2023/07/25 09:20:45;;;;;;;2.33;1.30;;;;;;;;;;5917831;28;20051;-70
2023/07/25 09:23:36;;;;;;;3.28;1.38;;;;;;;;;;5935760;28;20053;-71
2023/07/25 09:26:30;;;;;;;1.30;1.02;;;;;;;;;;5932963;28;20047;-71
2023/07/25 09:29:26;;;;;;;2.42;1.50;;;;;;;;;;5912522;28;20407;-71
2023/07/25 09:32:25;;;;;;;2.22;1.45;;;;;;;;;;5935689;28;20072;-70
2023/07/25 09:35:16;;;;;;;1.52;0.85;;;;;;;;;;5917787;28;20040;-71
2023/07/25 09:38:07;;;;;;;2.88;1.15;;;;;;;;;;5935097;28;20119;-70
2023/07/25 09:40:58;;;;;;;2.50;1.13;;;;;;;;;;5935585;28;20054;-71
2023/07/25 09:43:52;;;;;;;1.70;1.00;;;;;;;;;;5917153;28;20119;-71
2023/07/25 09:46:53;;;;;;;5.38;1.75;;;;;;;;;;5917243;28;20048;-72
2023/07/25 09:49:48;;;;;;;2.20;1.33;;;;;;;;;;5935046;28;20048;-71
2023/07/25 09:52:42;;;;;;;4.22;1.73;;;;;;;;;;5917126;28;20086;-70
2023/07/25 09:55:32;;;;;;;2.80;1.15;;;;;;;;;;5917244;28;20051;-71
2023/07/25 09:58:24;;;;;;;1.80;1.27;;;;;;;;;;5935154;28;20040;-70
2023/07/25 10:01:15;;;;;;;2.38;1.13;;;;;;;;;;5934321;28;20114;-71
2023/07/25 10:04:08;;;;;;;1.45;1.13;;;;;;;;;;5927548;28;20086;-71
2023/07/25 10:06:59;;;;;;;3.42;1.55;;;;;;;;;;5917287;28;20048;-71
2023/07/25 10:09:53;;;;;;;2.28;1.20;;;;;;;;;;5917296;28;20036;-72
2023/07/25 10:12:43;;;;;;;1.10;0.60;;;;;;;;;;5934499;28;20044;-71
2023/07/25 10:15:35;;;;;;;1.08;0.63;;;;;;;;;;5916886;28;20044;-71
2023/07/25 10:18:27;;;;;;;2.28;0.98;;;;;;;;;;5916679;28;20047;-71
2023/07/25 10:21:18;;;;;;;1.52;0.75;;;;;;;;;;5934558;28;20140;-71
2023/07/25 10:24:12;;;;;;;3.95;1.02;;;;;;;;;;5916606;28;20048;-71
2023/07/25 10:27:11;;;;;;;1.95;1.02;;;;;;;;;;5916615;28;20416;-72
2023/07/25 10:30:02;;;;;;;2.55;1.40;;;;;;;;;;5917914;28;20483;-71
2023/07/25 10:33:03;;;;;;;0.70;0.70;;;;;;;;;;5934784;28;20040;-71
2023/07/25 10:35:54;;;;;;;1.52;0.90;;;;;;;;;;5934728;28;20081;-72
2023/07/25 10:38:45;;;;;;;1.67;1.05;;;;;;;;;;5916263;28;20154;-72
2023/07/25 10:41:36;;;;;;;0.93;0.43;;;;;;;;;;5930520;28;20051;-72
2023/07/25 10:44:37;;;;;;;0.80;0.50;;;;;;;;;;5929675;28;20117;-72
2023/07/25 10:47:48;;;;;;;1.13;0.85;;;;;;;;;;5934271;28;20105;-72
2023/07/25 10:50:45;;;;;;;0.52;0.52;;;;;;;;;;5934131;28;20050;-72
2023/07/25 10:53:36;;;;;;;3.35;0.75;;;;;;;;;;5934214;28;20052;-72
2023/07/25 10:56:27;;;;;;;2.03;0.93;;;;;;;;;;5931896;28;20447;-71
2023/07/25 10:59:17;;;;;;;0.68;0.68;;;;;;;;;;5910438;28;20040;-71
2023/07/25 11:02:28;;;;;;;1.00;0.60;;;;;;;;;;5916186;28;20058;-71
2023/07/25 11:05:20;;;;;;;2.83;0.57;;;;;;;;;;5916434;28;20373;-71
2023/07/25 11:08:12;;;;;;;1.65;0.98;;;;;;;;;;5934400;28;20381;-71
2023/07/25 11:11:04;;;;;;;1.20;0.68;;;;;;;;;;5916282;28;20101;-71
2023/07/25 11:13:55;;;;;;;0.80;0.80;;;;;;;;;;5916674;28;20135;-72
2023/07/25 11:16:50;;;;;;;0.93;0.45;;;;;;;;;;5928816;28;20041;-71
2023/07/25 11:19:41;;;;;;;1.65;0.95;;;;;;;;;;5913745;28;20380;-72
2023/07/25 11:22:33;;;;;;;2.17;1.35;;;;;;;;;;5933933;28;20044;-70
2023/07/25 11:25:23;;;;;;;1.00;0.85;;;;;;;;;;5935770;28;20044;-71
2023/07/25 11:28:14;;;;;;;1.15;0.80;;;;;;;;;;5938232;28;20055;-71
2023/07/25 11:31:05;;;;;;;1.00;0.75;;;;;;;;;;5938374;28;20125;-72
2023/07/25 11:33:56;;;;;;;0.95;0.60;;;;;;;;;;5937614;28;20040;-71
2023/07/25 11:36:47;;;;;;;0.70;0.68;;;;;;;;;;5933331;28;20047;-71
2023/07/25 11:39:38;;;;;;;0.50;0.50;;;;;;;;;;5935217;28;20117;-71
2023/07/25 11:42:30;;;;;;;0.52;0.52;;;;;;;;;;5937692;28;20185;-71
2023/07/25 11:45:23;;;;;;;4.57;1.00;;;;;;;;;;5920039;28;20044;-70
2023/07/25 11:48:17;;;;;;;2.08;0.50;;;;;;;;;;5938088;28;20044;-71
2023/07/25 11:51:08;;;;;;;0.95;0.32;;;;;;;;;;5920384;28;20127;-71
2023/07/25 11:54:00;;;;;;;1.42;1.00;;;;;;;;;;5938442;28;20048;-71
2023/07/25 11:56:52;;;;;;;0.80;0.50;;;;;;;;;;5932228;28;20127;-71
2023/07/25 11:59:43;;;;;;;1.95;0.95;;;;;;;;;;5935323;28;20036;-71
2023/07/25 12:02:40;;;;;;;0.52;0.52;;;;;;;;;;5937622;28;20052;-71
2023/07/25 12:05:32;;;;;;;4.13;1.13;;;;;;;;;;5937481;28;20052;-71
2023/07/25 12:08:29;;;;;;;0.98;0.57;;;;;;;;;;5919999;28;20266;-71
2023/07/25 12:11:21;;;;;;;1.98;0.98;;;;;;;;;;5937578;28;20044;-71
2023/07/25 12:14:13;;;;;;;1.25;0.82;;;;;;;;;;5919637;28;20048;-71
2023/07/25 12:17:04;;;;;;;2.35;1.67;;;;;;;;;;5919559;28;20044;-70
2023/07/25 12:19:56;;;;;;;1.48;0.90;;;;;;;;;;5936918;28;20554;-70
2023/07/25 12:22:47;;;;;;;1.88;1.63;;;;;;;;;;5937148;28;20040;-70
2023/07/25 12:25:38;;;;;;;1.33;0.82;;;;;;;;;;5936808;28;20040;-71
2023/07/25 12:28:40;;;;;;;1.92;1.00;;;;;;;;;;5929560;28;20439;-72
2023/07/25 12:31:32;;;;;;;1.10;0.80;;;;;;;;;;5921459;28;20406;-71
2023/07/25 12:34:23;;;;;;;0.50;0.50;;;;;;;;;;5838656;28;20468;-71
2023/07/25 12:37:14;;;;;;;1.73;0.77;;;;;;;;;;5929020;28;20036;-70
2023/07/25 12:40:06;;;;;;;1.50;1.17;;;;;;;;;;5908306;28;20102;-71
2023/07/25 12:42:57;;;;;;;3.65;1.25;;;;;;;;;;5911151;28;20048;-71
2023/07/25 12:45:47;;;;;;;1.40;0.90;;;;;;;;;;5930216;28;20068;-72
2023/07/25 12:48:38;;;;;;;1.92;0.80;;;;;;;;;;5912654;28;20098;-70
2023/07/25 12:51:29;;;;;;;1.77;0.80;;;;;;;;;;5912175;28;20033;-70
2023/07/25 12:54:20;;;;;;;1.17;1.00;;;;;;;;;;5934362;28;20047;-71
2023/07/25 12:57:11;;;;;;;1.85;1.13;;;;;;;;;;5873134;28;20116;-71
2023/07/25 13:00:03;;;;;;;1.98;1.10;;;;;;;;;;5912623;28;20063;-71
2023/07/25 13:02:57;;;;;;;0.98;0.70;;;;;;;;;;5918938;28;20114;-72
2023/07/25 13:05:48;;;;;;;0.77;0.63;;;;;;;;;;5905606;28;20403;-71
2023/07/25 13:08:39;;;;;;;1.13;0.90;;;;;;;;;;5867322;28;20071;-78
2023/07/25 13:11:29;;;;;;;1.20;1.00;;;;;;;;;;5914267;28;20131;-75
2023/07/25 13:14:21;;;;;;;3.33;0.80;;;;;;;;;;5885910;28;20048;-74
2023/07/25 13:17:11;;;;;;;0.35;0.35;;;;;;;;;;5934951;28;20490;-74
2023/07/25 13:20:08;;;;;;;0.50;0.43;;;;;;;;;;5889721;28;20465;-75
2023/07/25 13:22:59;;;;;;;5.18;1.23;;;;;;;;;;5865935;28;20060;-74
2023/07/25 13:25:50;;;;;;;1.17;1.05;;;;;;;;;;5917473;28;20498;-74
2023/07/25 13:28:41;;;;;;;0.90;0.88;;;;;;;;;;5932796;28;20136;-76
2023/07/25 13:31:32;;;;;;;0.80;0.80;;;;;;;;;;5934171;28;20117;-75
2023/07/25 13:34:23;;;;;;;1.00;0.95;;;;;;;;;;5934361;28;20513;-75
2023/07/25 13:37:18;;;;;;;1.58;0.85;;;;;;;;;;5935513;28;20138;-75
2023/07/25 13:40:09;;;;;;;2.00;1.23;;;;;;;;;;5935553;28;20170;-75
2023/07/25 13:43:00;;;;;;;0.88;0.70;;;;;;;;;;5959418;28;20468;-75
2023/07/25 13:45:50;;;;;;;2.78;1.00;;;;;;;;;;5959067;28;20439;-75
2023/07/25 13:48:44;;;;;;;0.60;0.60;;;;;;;;;;5939454;28;20047;-75
2023/07/25 13:51:35;;;;;;;12.48;2.10;;;;;;;;;;5958713;28;20043;-76
2023/07/25 13:54:26;;;;;;;1.25;0.82;;;;;;;;;;5920155;28;20040;-75
2023/07/25 13:57:17;;;;;;;1.15;1.05;;;;;;;;;;5944341;28;20043;-75
2023/07/25 14:00:08;;;;;;;1.50;0.63;;;;;;;;;;5958609;28;20128;-75
2023/07/25 14:02:59;;;;;;;0.93;0.88;;;;;;;;;;5959078;28;20123;-75
2023/07/25 14:05:50;;;;;;;1.45;0.90;;;;;;;;;;5958789;28;20043;-75
2023/07/25 14:08:41;;;;;;;1.45;1.30;;;;;;;;;;5958494;28;20042;-75
2023/07/25 14:11:32;;;;;;;0.55;0.55;;;;;;;;;;5940142;28;20134;-75
2023/07/25 14:14:23;;;;;;;1.10;1.00;;;;;;;;;;5958225;28;20059;-75
2023/07/25 14:17:14;;;;;;;3.15;1.42;;;;;;;;;;5958409;28;20130;-75
2023/07/25 14:20:06;;;;;;;1.90;0.82;;;;;;;;;;5958431;28;20044;-75
2023/07/25 14:22:57;;;;;;;0.80;0.70;;;;;;;;;;5958684;28;20544;-75
2023/07/25 14:25:47;;;;;;;1.40;1.17;;;;;;;;;;5958352;28;20040;-76
2023/07/25 14:28:39;;;;;;;2.75;1.05;;;;;;;;;;5958006;28;20039;-76
2023/07/25 14:31:30;;;;;;;1.95;0.93;;;;;;;;;;5958008;28;20032;-76
2023/07/25 14:34:23;;;;;;;1.13;0.68;;;;;;;;;;5957933;28;20051;-76
2023/07/25 14:37:14;;;;;;;0.60;0.50;;;;;;;;;;5957967;28;20047;-77
2023/07/25 14:40:06;;;;;;;2.60;0.93;;;;;;;;;;5957876;28;20051;-76
2023/07/25 14:42:57;;;;;;;2.20;1.40;;;;;;;;;;5957814;28;20043;-76
2023/07/25 14:45:48;;;;;;;6.22;1.30;;;;;;;;;;5957856;28;20046;-76
2023/07/25 14:48:39;;;;;;;2.28;1.13;;;;;;;;;;5957742;28;20043;-77
2023/07/25 14:51:30;;;;;;;1.67;0.75;;;;;;;;;;5939520;28;20536;-76
2023/07/25 14:54:20;;;;;;;3.25;1.08;;;;;;;;;;5939583;28;20048;-77
2023/07/25 14:57:11;;;;;;;1.73;1.30;;;;;;;;;;5956270;28;20075;-77
2023/07/25 15:00:03;;;;;;;0.52;0.52;;;;;;;;;;5961419;28;20498;-77
2023/07/25 15:02:56;;;;;;;0.73;0.73;;;;;;;;;;5962864;28;20067;-76
2023/07/25 15:05:47;;;;;;;3.67;1.42;;;;;;;;;;5962472;28;20486;-75
2023/07/25 15:08:37;;;;;;;1.13;1.02;;;;;;;;;;5962400;28;20050;-75
2023/07/25 15:11:29;;;;;;;3.00;1.70;;;;;;;;;;5962133;28;20067;-75
2023/07/25 15:14:19;;;;;;;2.15;1.27;;;;;;;;;;5962218;28;20176;-76
2023/07/25 15:17:23;;;;;;;2.83;1.95;;;;;;;;;;5962144;28;20035;-76
2023/07/25 15:20:14;;;;;;;1.27;1.08;;;;;;;;;;5962327;28;20040;-77
2023/07/25 15:23:05;;;;;;;1.80;0.57;;;;;;;;;;5961880;28;20054;-78
2023/07/25 15:25:56;;;;;;;1.10;0.68;;;;;;;;;;5962578;28;20097;-78
2023/07/25 15:28:47;;;;;;;0.90;0.88;;;;;;;;;;5961887;28;20120;-78
2023/07/25 15:31:38;;;;;;;0.47;0.47;;;;;;;;;;5961844;28;20517;-78
2023/07/25 15:34:29;;;;;;;0.40;0.40;;;;;;;;;;5961603;28;20050;-77
2023/07/25 15:37:19;;;;;;;1.95;1.17;;;;;;;;;;5962048;28;20071;-78
2023/07/25 15:40:10;;;;;;;2.85;1.15;;;;;;;;;;5961807;28;20044;-78
2023/07/25 15:43:02;;;;;;;1.20;0.98;;;;;;;;;;5961530;28;20162;-77
2023/07/25 15:45:52;;;;;;;0.40;0.40;;;;;;;;;;5962479;28;20600;-77
2023/07/25 15:48:44;;;;;;;5.20;1.33;;;;;;;;;;5961552;28;20071;-77
2023/07/25 15:51:38;;;;;;;0.50;0.50;;;;;;;;;;5961484;28;20059;-77
2023/07/25 15:54:29;;;;;;;1.55;1.15;;;;;;;;;;5961464;28;20050;-77
2023/07/25 15:57:20;;;;;;;0.30;0.30;;;;;;;;;;5961451;28;20043;-77
2023/07/25 16:00:11;;;;;;;0.85;0.70;;;;;;;;;;5961406;28;20120;-77
2023/07/25 16:03:03;;;;;;;0.93;0.70;;;;;;;;;;5961319;28;20050;-77
2023/07/25 16:05:54;;;;;;;8.20;1.23;;;;;;;;;;5961790;28;20044;-77
2023/07/25 16:08:45;;;;;;;0.47;0.47;;;;;;;;;;5961292;28;20130;-77
2023/07/25 16:11:35;;;;;;;0.65;0.63;;;;;;;;;;5960425;28;20604;-77
2023/07/25 16:14:26;;;;;;;1.80;1.00;;;;;;;;;;5961174;28;20043;-78
2023/07/25 16:17:17;;;;;;;1.75;0.82;;;;;;;;;;5961102;28;20071;-77
2023/07/25 16:20:08;;;;;;;1.65;1.05;;;;;;;;;;5961272;28;20047;-77
2023/07/25 16:22:59;;;;;;;2.38;0.77;;;;;;;;;;5961556;28;20101;-77
2023/07/25 16:25:54;;;;;;;0.68;0.68;;;;;;;;;;5943267;28;20035;-78
2023/07/25 16:28:44;;;;;;;1.52;1.08;;;;;;;;;;5943117;28;20051;-77
2023/07/25 16:31:35;;;;;;;1.15;0.80;;;;;;;;;;5960602;28;20039;-77
2023/07/25 16:34:26;;;;;;;0.50;0.50;;;;;;;;;;5960451;28;20047;-76
2023/07/25 16:37:17;;;;;;;0.38;0.38;;;;;;;;;;5960586;28;20105;-76
2023/07/25 16:40:08;;;;;;;0.80;0.80;;;;;;;;;;5960531;28;20458;-77
2023/07/25 16:43:02;;;;;;;1.05;0.85;;;;;;;;;;5960622;28;20126;-76
2023/07/25 16:45:52;;;;;;;0.73;0.73;;;;;;;;;;5960635;28;20378;-76
2023/07/25 16:48:43;;;;;;;2.58;1.70;;;;;;;;;;5960266;28;20043;-76
2023/07/25 16:51:34;;;;;;;2.28;1.05;;;;;;;;;;5960118;28;20180;-77
2023/07/25 16:54:25;;;;;;;2.53;1.30;;;;;;;;;;5959996;28;20046;-77
2023/07/25 16:57:16;;;;;;;1.92;1.08;;;;;;;;;;5941906;28;20055;-76
2023/07/25 17:00:08;;;;;;;1.75;1.05;;;;;;;;;;5960098;28;20043;-77
2023/07/25 17:02:59;;;;;;;1.65;1.10;;;;;;;;;;5960244;28;20046;-76
2023/07/25 17:05:50;;;;;;;2.70;1.65;;;;;;;;;;5933407;28;20163;-76
2023/07/25 17:08:41;;;;;;;1.95;1.20;;;;;;;;;;5959553;28;20051;-76